sensor_id;sensor_type;location;lat;lon;timestamp;pressure;altitude;pressure_sealevel;temperature;humidity
23118;BME280;11728;50.624;6.014;2023-04-29T00:01:51;98113.78;;;12.87;95.00
23118;BME280;11728;50.624;6.014;2023-04-29T00:07:12;98113.72;;;12.90;94.67
23118;BME280;11728;50.624;6.014;2023-04-29T00:12:35;98120.94;;;12.85;94.42
23118;BME280;11728;50.624;6.014;2023-04-29T00:17:56;98124.13;;;12.69;94.87
23118;BME280;11728;50.624;6.014;2023-04-29T00:23:16;98126.16;;;12.61;95.11
23118;BME280;11728;50.624;6.014;2023-04-29T00:28:37;98116.59;;;12.57;95.57
23118;BME280;11728;50.624;6.014;2023-04-29T00:33:58;98126.22;;;12.59;95.31
23118;BME280;11728;50.624;6.014;2023-04-29T00:39:19;98128.03;;;12.59;94.99
23118;BME280;11728;50.624;6.014;2023-04-29T00:44:39;98132.66;;;12.52;95.04
23118;BME280;11728;50.624;6.014;2023-04-29T00:50:00;98134.53;;;12.49;95.14
23118;BME280;11728;50.624;6.014;2023-04-29T00:55:22;98131.13;;;12.45;94.73
23118;BME280;11728;50.624;6.014;2023-04-29T01:00:43;98139.78;;;12.50;94.59
23118;BME280;11728;50.624;6.014;2023-04-29T01:12:35;98142.47;;;12.23;93.89
23118;BME280;11728;50.624;6.014;2023-04-29T01:17:30;98153.22;;;12.17;93.48
23118;BME280;11728;50.624;6.014;2023-04-29T01:22:52;98161.34;;;12.13;93.17
23118;BME280;11728;50.624;6.014;2023-04-29T01:34:08;98167.88;;;12.00;93.30
23118;BME280;11728;50.624;6.014;2023-04-29T01:45:15;98170.84;;;11.89;93.79
23118;BME280;11728;50.624;6.014;2023-04-29T01:50:40;98161.25;;;11.87;93.85
23118;BME280;11728;50.624;6.014;2023-04-29T01:56:01;98168.53;;;11.79;94.76
23118;BME280;11728;50.624;6.014;2023-04-29T02:01:22;98162.47;;;11.75;94.77
23118;BME280;11728;50.624;6.014;2023-04-29T02:06:43;98170.78;;;11.63;95.12
23118;BME280;11728;50.624;6.014;2023-04-29T02:12:04;98169.34;;;11.52;94.87
23118;BME280;11728;50.624;6.014;2023-04-29T02:17:25;98176.41;;;11.50;94.69
23118;BME280;11728;50.624;6.014;2023-04-29T02:22:46;98179.03;;;11.51;94.98
23118;BME280;11728;50.624;6.014;2023-04-29T02:28:06;98188.72;;;11.52;94.85
23118;BME280;11728;50.624;6.014;2023-04-29T02:33:27;98192.88;;;11.61;94.58
23118;BME280;11728;50.624;6.014;2023-04-29T02:38:48;98193.69;;;11.63;94.60
23118;BME280;11728;50.624;6.014;2023-04-29T02:44:10;98197.34;;;11.59;94.76
23118;BME280;11728;50.624;6.014;2023-04-29T02:49:31;98198.31;;;11.55;94.95
23118;BME280;11728;50.624;6.014;2023-04-29T02:54:52;98195.78;;;11.52;95.27
23118;BME280;11728;50.624;6.014;2023-04-29T03:00:13;98207.22;;;11.52;95.04
23118;BME280;11728;50.624;6.014;2023-04-29T03:05:34;98201.75;;;11.58;95.15
23118;BME280;11728;50.624;6.014;2023-04-29T03:10:55;98200.66;;;11.67;94.54
23118;BME280;11728;50.624;6.014;2023-04-29T03:16:16;98201.06;;;11.52;94.62
23118;BME280;11728;50.624;6.014;2023-04-29T03:21:36;98204.84;;;11.42;95.04
23118;BME280;11728;50.624;6.014;2023-04-29T03:26:57;98206.91;;;11.31;94.78
23118;BME280;11728;50.624;6.014;2023-04-29T03:32:19;98208.81;;;11.26;94.96
23118;BME280;11728;50.624;6.014;2023-04-29T03:37:40;98204.53;;;11.22;94.93
23118;BME280;11728;50.624;6.014;2023-04-29T03:43:03;98209.13;;;11.14;95.17
23118;BME280;11728;50.624;6.014;2023-04-29T03:48:24;98210.00;;;11.15;95.13
23118;BME280;11728;50.624;6.014;2023-04-29T03:53:45;98211.69;;;11.17;95.31
23118;BME280;11728;50.624;6.014;2023-04-29T03:59:06;98217.19;;;11.10;95.87
23118;BME280;11728;50.624;6.014;2023-04-29T04:04:27;98216.38;;;11.06;96.04
23118;BME280;11728;50.624;6.014;2023-04-29T04:09:47;98221.00;;;10.98;96.41
23118;BME280;11728;50.624;6.014;2023-04-29T04:15:09;98225.66;;;10.87;96.54
23118;BME280;11728;50.624;6.014;2023-04-29T04:20:30;98239.81;;;10.86;96.71
23118;BME280;11728;50.624;6.014;2023-04-29T04:25:50;98243.34;;;10.85;96.53
23118;BME280;11728;50.624;6.014;2023-04-29T04:31:12;98239.88;;;10.83;96.64
23118;BME280;11728;50.624;6.014;2023-04-29T04:36:34;98252.25;;;10.81;97.09
23118;BME280;11728;50.624;6.014;2023-04-29T04:41:55;98261.22;;;10.74;97.29
23118;BME280;11728;50.624;6.014;2023-04-29T04:47:15;98261.53;;;10.63;98.05
23118;BME280;11728;50.624;6.014;2023-04-29T04:52:36;98271.34;;;10.56;98.82
23118;BME280;11728;50.624;6.014;2023-04-29T04:57:57;98286.28;;;10.57;98.59
23118;BME280;11728;50.624;6.014;2023-04-29T05:03:18;98300.44;;;10.55;98.63
23118;BME280;11728;50.624;6.014;2023-04-29T05:08:39;98313.53;;;10.59;98.47
23118;BME280;11728;50.624;6.014;2023-04-29T05:13:59;98314.44;;;10.58;98.56
23118;BME280;11728;50.624;6.014;2023-04-29T05:19:20;98317.19;;;10.54;98.56
23118;BME280;11728;50.624;6.014;2023-04-29T05:24:41;98332.25;;;10.49;98.90
23118;BME280;11728;50.624;6.014;2023-04-29T05:30:02;98334.94;;;10.46;99.24
23118;BME280;11728;50.624;6.014;2023-04-29T05:35:23;98332.50;;;10.37;99.83
23118;BME280;11728;50.624;6.014;2023-04-29T05:40:44;98343.06;;;10.37;99.96
23118;BME280;11728;50.624;6.014;2023-04-29T05:46:05;98355.28;;;10.42;100.00
23118;BME280;11728;50.624;6.014;2023-04-29T05:51:26;98357.78;;;10.48;100.00
23118;BME280;11728;50.624;6.014;2023-04-29T05:56:47;98365.59;;;10.53;100.00
23118;BME280;11728;50.624;6.014;2023-04-29T06:02:08;98369.13;;;10.52;100.00
23118;BME280;11728;50.624;6.014;2023-04-29T06:07:30;98375.22;;;10.55;100.00
23118;BME280;11728;50.624;6.014;2023-04-29T06:12:51;98372.63;;;10.54;100.00
23118;BME280;11728;50.624;6.014;2023-04-29T06:18:12;98378.66;;;10.59;100.00
23118;BME280;11728;50.624;6.014;2023-04-29T06:23:32;98383.81;;;10.66;100.00
23118;BME280;11728;50.624;6.014;2023-04-29T06:28:53;98387.19;;;10.71;100.00
23118;BME280;11728;50.624;6.014;2023-04-29T06:34:14;98389.66;;;10.80;100.00
23118;BME280;11728;50.624;6.014;2023-04-29T06:39:35;98392.47;;;10.73;100.00
23118;BME280;11728;50.624;6.014;2023-04-29T06:44:55;98411.19;;;10.61;100.00
23118;BME280;11728;50.624;6.014;2023-04-29T06:50:16;98416.16;;;10.75;100.00
23118;BME280;11728;50.624;6.014;2023-04-29T06:55:37;98421.25;;;10.84;100.00
23118;BME280;11728;50.624;6.014;2023-04-29T07:00:58;98434.03;;;11.02;99.56
23118;BME280;11728;50.624;6.014;2023-04-29T07:06:19;98430.13;;;11.20;98.83
23118;BME280;11728;50.624;6.014;2023-04-29T07:11:40;98444.22;;;11.20;98.86
23118;BME280;11728;50.624;6.014;2023-04-29T07:17:01;98445.50;;;11.39;98.23
23118;BME280;11728;50.624;6.014;2023-04-29T07:22:22;98450.31;;;11.61;97.62
23118;BME280;11728;50.624;6.014;2023-04-29T07:27:43;98446.66;;;11.65;97.05
23118;BME280;11728;50.624;6.014;2023-04-29T07:33:04;98447.00;;;11.52;97.23
23118;BME280;11728;50.624;6.014;2023-04-29T07:38:24;98458.72;;;11.39;97.30
23118;BME280;11728;50.624;6.014;2023-04-29T07:43:45;98471.50;;;11.21;97.90
23118;BME280;11728;50.624;6.014;2023-04-29T07:49:06;98472.47;;;11.17;97.65
23118;BME280;11728;50.624;6.014;2023-04-29T07:54:27;98477.16;;;11.06;97.75
23118;BME280;11728;50.624;6.014;2023-04-29T07:59:54;98483.34;;;11.05;97.91
23118;BME280;11728;50.624;6.014;2023-04-29T08:05:15;98493.06;;;11.03;97.74
23118;BME280;11728;50.624;6.014;2023-04-29T08:10:37;98503.63;;;11.03;97.40
23118;BME280;11728;50.624;6.014;2023-04-29T08:16:00;98505.28;;;11.08;97.48
23118;BME280;11728;50.624;6.014;2023-04-29T08:21:21;98506.09;;;11.10;97.29
23118;BME280;11728;50.624;6.014;2023-04-29T08:26:41;98514.25;;;11.01;97.42
23118;BME280;11728;50.624;6.014;2023-04-29T08:32:02;98506.41;;;10.95;97.59
23118;BME280;11728;50.624;6.014;2023-04-29T08:37:23;98514.44;;;10.92;97.67
23118;BME280;11728;50.624;6.014;2023-04-29T08:42:44;98519.63;;;10.97;97.51
23118;BME280;11728;50.624;6.014;2023-04-29T08:48:08;98520.50;;;10.96;97.34
23118;BME280;11728;50.624;6.014;2023-04-29T08:53:29;98526.47;;;11.05;96.73
23118;BME280;11728;50.624;6.014;2023-04-29T08:58:50;98530.50;;;11.24;96.66
23118;BME280;11728;50.624;6.014;2023-04-29T09:09:43;98545.09;;;11.40;96.36
23118;BME280;11728;50.624;6.014;2023-04-29T09:15:04;98550.00;;;11.58;96.01
23118;BME280;11728;50.624;6.014;2023-04-29T09:20:26;98551.31;;;11.77;95.43
23118;BME280;11728;50.624;6.014;2023-04-29T09:50:24;98581.41;;;11.73;94.85
23118;BME280;11728;50.624;6.014;2023-04-29T09:56:01;98584.91;;;11.75;94.78
23118;BME280;11728;50.624;6.014;2023-04-29T10:01:22;98591.00;;;11.78;94.53
23118;BME280;11728;50.624;6.014;2023-04-29T10:06:54;98606.69;;;11.86;94.08
23118;BME280;11728;50.624;6.014;2023-04-29T10:12:16;98618.25;;;11.82;94.10
23118;BME280;11728;50.624;6.014;2023-04-29T10:18:17;98612.72;;;11.91;93.66
23118;BME280;11728;50.624;6.014;2023-04-29T10:23:40;98615.06;;;12.04;92.84
23118;BME280;11728;50.624;6.014;2023-04-29T10:29:04;98611.50;;;12.05;92.29
23118;BME280;11728;50.624;6.014;2023-04-29T10:34:25;98616.25;;;11.91;92.74
23118;BME280;11728;50.624;6.014;2023-04-29T10:40:11;98616.59;;;11.76;92.94
23118;BME280;11728;50.624;6.014;2023-04-29T10:45:33;98615.66;;;11.79;92.82
23118;BME280;11728;50.624;6.014;2023-04-29T10:56:16;98622.31;;;11.98;92.12
23118;BME280;11728;50.624;6.014;2023-04-29T11:07:05;98621.00;;;12.14;91.89
23118;BME280;11728;50.624;6.014;2023-04-29T11:12:27;98618.91;;;12.27;91.35
23118;BME280;11728;50.624;6.014;2023-04-29T11:17:48;98617.59;;;12.45;90.72
23118;BME280;11728;50.624;6.014;2023-04-29T11:23:09;98625.84;;;12.68;89.94
23118;BME280;11728;50.624;6.014;2023-04-29T11:28:31;98620.03;;;12.86;89.41
23118;BME280;11728;50.624;6.014;2023-04-29T11:33:51;98617.34;;;13.20;88.92
23118;BME280;11728;50.624;6.014;2023-04-29T11:39:12;98613.41;;;13.64;86.88
23118;BME280;11728;50.624;6.014;2023-04-29T11:44:34;98609.78;;;14.75;83.20
23118;BME280;11728;50.624;6.014;2023-04-29T11:50:08;98610.28;;;15.37;80.21
23118;BME280;11728;50.624;6.014;2023-04-29T11:55:30;98619.41;;;15.52;79.35
23118;BME280;11728;50.624;6.014;2023-04-29T12:00:53;98624.06;;;15.47;78.41
23118;BME280;11728;50.624;6.014;2023-04-29T12:06:18;98617.16;;;15.18;77.44
23118;BME280;11728;50.624;6.014;2023-04-29T12:11:41;98614.53;;;14.92;76.97
23118;BME280;11728;50.624;6.014;2023-04-29T12:17:04;98618.81;;;14.71;77.26
23118;BME280;11728;50.624;6.014;2023-04-29T12:22:31;98618.88;;;14.70;77.50
23118;BME280;11728;50.624;6.014;2023-04-29T12:27:58;98630.38;;;14.43;77.98
23118;BME280;11728;50.624;6.014;2023-04-29T12:33:24;98628.81;;;14.09;79.18
23118;BME280;11728;50.624;6.014;2023-04-29T12:38:46;98624.47;;;14.06;78.78
23118;BME280;11728;50.624;6.014;2023-04-29T12:44:08;98629.63;;;14.12;78.44
23118;BME280;11728;50.624;6.014;2023-04-29T12:49:33;98632.25;;;14.14;78.15
23118;BME280;11728;50.624;6.014;2023-04-29T12:54:53;98624.97;;;14.46;77.77
23118;BME280;11728;50.624;6.014;2023-04-29T13:00:16;98630.06;;;15.04;76.57
23118;BME280;11728;50.624;6.014;2023-04-29T13:05:38;98626.25;;;15.37;75.50
23118;BME280;11728;50.624;6.014;2023-04-29T13:10:58;98633.00;;;15.21;75.27
23118;BME280;11728;50.624;6.014;2023-04-29T13:16:19;98633.41;;;15.09;75.60
23118;BME280;11728;50.624;6.014;2023-04-29T13:21:41;98635.22;;;14.84;76.08
23118;BME280;11728;50.624;6.014;2023-04-29T13:27:02;98627.44;;;14.78;76.58
23118;BME280;11728;50.624;6.014;2023-04-29T13:32:23;98633.72;;;14.75;76.34
23118;BME280;11728;50.624;6.014;2023-04-29T13:37:44;98639.03;;;14.50;76.96
23118;BME280;11728;50.624;6.014;2023-04-29T13:43:05;98628.81;;;14.63;76.89
23118;BME280;11728;50.624;6.014;2023-04-29T13:48:26;98643.59;;;14.72;77.25
23118;BME280;11728;50.624;6.014;2023-04-29T13:53:47;98636.31;;;15.29;75.80
23118;BME280;11728;50.624;6.014;2023-04-29T13:59:08;98642.34;;;15.56;75.00
23118;BME280;11728;50.624;6.014;2023-04-29T14:04:29;98642.91;;;15.41;73.96
23118;BME280;11728;50.624;6.014;2023-04-29T14:09:49;98650.59;;;15.00;74.82
23118;BME280;11728;50.624;6.014;2023-04-29T14:15:11;98658.56;;;14.49;76.12
23118;BME280;11728;50.624;6.014;2023-04-29T14:20:32;98660.25;;;14.24;77.06
23118;BME280;11728;50.624;6.014;2023-04-29T14:25:52;98666.81;;;14.12;77.03
23118;BME280;11728;50.624;6.014;2023-04-29T14:31:13;98662.47;;;14.08;77.27
23118;BME280;11728;50.624;6.014;2023-04-29T14:36:34;98673.00;;;14.13;77.39
23118;BME280;11728;50.624;6.014;2023-04-29T14:41:55;98676.03;;;14.28;76.95
23118;BME280;11728;50.624;6.014;2023-04-29T14:47:16;98677.22;;;14.47;76.43
23118;BME280;11728;50.624;6.014;2023-04-29T14:52:36;98683.31;;;14.76;75.39
23118;BME280;11728;50.624;6.014;2023-04-29T14:57:57;98687.16;;;14.94;74.44
23118;BME280;11728;50.624;6.014;2023-04-29T15:03:18;98693.13;;;15.00;74.22
23118;BME280;11728;50.624;6.014;2023-04-29T15:08:39;98692.81;;;14.83;74.16
23118;BME280;11728;50.624;6.014;2023-04-29T15:13:59;98686.75;;;14.80;74.76
23118;BME280;11728;50.624;6.014;2023-04-29T15:19:20;98691.47;;;14.98;74.30
23118;BME280;11728;50.624;6.014;2023-04-29T15:24:41;98682.41;;;15.03;73.68
23118;BME280;11728;50.624;6.014;2023-04-29T15:30:03;98684.31;;;15.26;73.69
23118;BME280;11728;50.624;6.014;2023-04-29T15:35:24;98681.09;;;15.40;72.66
23118;BME280;11728;50.624;6.014;2023-04-29T15:40:45;98676.91;;;15.58;72.31
23118;BME280;11728;50.624;6.014;2023-04-29T15:46:05;98676.97;;;15.56;70.80
23118;BME280;11728;50.624;6.014;2023-04-29T15:51:29;98679.41;;;15.62;71.16
23118;BME280;11728;50.624;6.014;2023-04-29T15:56:54;98684.50;;;15.68;71.25
23118;BME280;11728;50.624;6.014;2023-04-29T16:02:24;98684.63;;;15.65;71.11
23118;BME280;11728;50.624;6.014;2023-04-29T16:07:47;98678.34;;;15.43;70.86
23118;BME280;11728;50.624;6.014;2023-04-29T16:13:08;98684.31;;;15.26;70.79
23118;BME280;11728;50.624;6.014;2023-04-29T16:18:29;98688.69;;;15.01;71.17
23118;BME280;11728;50.624;6.014;2023-04-29T16:23:50;98699.13;;;14.81;71.32
23118;BME280;11728;50.624;6.014;2023-04-29T16:29:11;98704.16;;;14.62;71.38
23118;BME280;11728;50.624;6.014;2023-04-29T16:34:32;98704.72;;;14.46;71.62
23118;BME280;11728;50.624;6.014;2023-04-29T16:39:53;98708.84;;;14.27;71.71
23118;BME280;11728;50.624;6.014;2023-04-29T16:45:14;98708.19;;;14.19;72.08
23118;BME280;11728;50.624;6.014;2023-04-29T16:50:35;98710.25;;;14.11;72.15
23118;BME280;11728;50.624;6.014;2023-04-29T16:55:57;98713.22;;;13.99;73.00
23118;BME280;11728;50.624;6.014;2023-04-29T17:01:17;98717.88;;;13.91;73.28
23118;BME280;11728;50.624;6.014;2023-04-29T17:06:39;98712.81;;;13.84;74.23
23118;BME280;11728;50.624;6.014;2023-04-29T17:12:00;98728.72;;;13.84;74.58
23118;BME280;11728;50.624;6.014;2023-04-29T17:17:23;98726.19;;;13.80;75.26
23118;BME280;11728;50.624;6.014;2023-04-29T17:22:44;98724.63;;;13.73;75.33
23118;BME280;11728;50.624;6.014;2023-04-29T17:28:04;98718.56;;;13.68;75.63
23118;BME280;11728;50.624;6.014;2023-04-29T17:33:26;98722.16;;;13.67;75.83
23118;BME280;11728;50.624;6.014;2023-04-29T17:38:54;98714.19;;;13.67;76.09
23118;BME280;11728;50.624;6.014;2023-04-29T17:44:15;98712.44;;;13.66;76.33
23118;BME280;11728;50.624;6.014;2023-04-29T17:49:36;98712.34;;;13.69;76.31
23118;BME280;11728;50.624;6.014;2023-04-29T17:54:56;98718.38;;;13.75;76.23
23118;BME280;11728;50.624;6.014;2023-04-29T18:00:17;98719.50;;;13.67;76.46
23118;BME280;11728;50.624;6.014;2023-04-29T18:05:38;98717.75;;;13.66;76.67
23118;BME280;11728;50.624;6.014;2023-04-29T18:10:59;98710.97;;;13.56;77.20
23118;BME280;11728;50.624;6.014;2023-04-29T18:16:20;98709.31;;;13.52;77.63
23118;BME280;11728;50.624;6.014;2023-04-29T18:21:41;98720.00;;;13.49;77.79
23118;BME280;11728;50.624;6.014;2023-04-29T18:27:02;98722.72;;;13.47;78.35
23118;BME280;11728;50.624;6.014;2023-04-29T18:32:22;98720.06;;;13.47;78.47
23118;BME280;11728;50.624;6.014;2023-04-29T18:48:26;98718.88;;;12.92;80.49
23118;BME280;11728;50.624;6.014;2023-04-29T18:53:50;98716.72;;;12.71;80.58
23118;BME280;11728;50.624;6.014;2023-04-29T18:59:11;98721.56;;;12.54;80.61
23118;BME280;11728;50.624;6.014;2023-04-29T19:04:35;98735.66;;;12.17;81.75
23118;BME280;11728;50.624;6.014;2023-04-29T19:09:56;98744.16;;;11.92;82.40
23118;BME280;11728;50.624;6.014;2023-04-29T19:15:16;98745.56;;;11.67;83.06
23118;BME280;11728;50.624;6.014;2023-04-29T19:20:39;98760.84;;;11.51;84.08
23118;BME280;11728;50.624;6.014;2023-04-29T19:26:00;98769.13;;;11.32;84.87
23118;BME280;11728;50.624;6.014;2023-04-29T19:31:21;98778.16;;;11.19;85.43
23118;BME280;11728;50.624;6.014;2023-04-29T19:36:42;98782.66;;;11.14;85.33
23118;BME280;11728;50.624;6.014;2023-04-29T19:42:03;98787.31;;;11.00;86.06
23118;BME280;11728;50.624;6.014;2023-04-29T19:47:23;98780.53;;;10.84;86.69
23118;BME280;11728;50.624;6.014;2023-04-29T19:52:44;98779.84;;;10.72;88.06
23118;BME280;11728;50.624;6.014;2023-04-29T19:58:06;98779.13;;;10.63;88.53
23118;BME280;11728;50.624;6.014;2023-04-29T20:03:27;98783.66;;;10.52;89.41
23118;BME280;11728;50.624;6.014;2023-04-29T20:08:48;98789.16;;;10.37;90.31
23118;BME280;11728;50.624;6.014;2023-04-29T20:14:08;98807.84;;;10.25;91.22
23118;BME280;11728;50.624;6.014;2023-04-29T20:19:29;98803.59;;;10.13;91.31
23118;BME280;11728;50.624;6.014;2023-04-29T20:24:50;98809.03;;;9.95;92.82
23118;BME280;11728;50.624;6.014;2023-04-29T20:30:11;98808.34;;;9.83;93.58
23118;BME280;11728;50.624;6.014;2023-04-29T20:35:33;98814.66;;;9.67;94.68
23118;BME280;11728;50.624;6.014;2023-04-29T20:40:54;98808.56;;;9.62;94.96
23118;BME280;11728;50.624;6.014;2023-04-29T20:46:14;98817.41;;;9.55;95.15
23118;BME280;11728;50.624;6.014;2023-04-29T20:51:36;98823.63;;;9.48;95.04
23118;BME280;11728;50.624;6.014;2023-04-29T20:56:56;98825.50;;;9.39;95.45
23118;BME280;11728;50.624;6.014;2023-04-29T21:02:17;98816.84;;;9.28;95.66
23118;BME280;11728;50.624;6.014;2023-04-29T21:07:39;98832.69;;;9.23;95.35
23118;BME280;11728;50.624;6.014;2023-04-29T21:13:00;98841.50;;;9.21;95.19
23118;BME280;11728;50.624;6.014;2023-04-29T21:18:21;98831.06;;;9.08;95.07
23118;BME280;11728;50.624;6.014;2023-04-29T21:23:41;98839.09;;;8.96;95.29
23118;BME280;11728;50.624;6.014;2023-04-29T21:29:02;98844.41;;;8.87;95.94
23118;BME280;11728;50.624;6.014;2023-04-29T21:34:23;98839.19;;;8.78;96.15
23118;BME280;11728;50.624;6.014;2023-04-29T21:39:44;98848.00;;;8.75;96.14
23118;BME280;11728;50.624;6.014;2023-04-29T21:45:05;98847.19;;;8.66;95.63
23118;BME280;11728;50.624;6.014;2023-04-29T21:50:26;98849.88;;;8.54;96.13
23118;BME280;11728;50.624;6.014;2023-04-29T21:55:47;98842.88;;;8.48;96.34
23118;BME280;11728;50.624;6.014;2023-04-29T22:01:07;98854.34;;;8.40;97.08
23118;BME280;11728;50.624;6.014;2023-04-29T22:06:46;98845.56;;;8.44;97.75
23118;BME280;11728;50.624;6.014;2023-04-29T22:12:06;98851.59;;;8.64;97.30
23118;BME280;11728;50.624;6.014;2023-04-29T22:17:27;98852.38;;;8.78;96.92
23118;BME280;11728;50.624;6.014;2023-04-29T22:22:48;98853.94;;;9.04;95.72
23118;BME280;11728;50.624;6.014;2023-04-29T22:28:08;98861.72;;;9.19;94.69
23118;BME280;11728;50.624;6.014;2023-04-29T22:33:29;98866.06;;;9.24;94.83
23118;BME280;11728;50.624;6.014;2023-04-29T22:38:50;98860.78;;;9.23;94.71
23118;BME280;11728;50.624;6.014;2023-04-29T22:44:11;98862.56;;;9.22;94.36
23118;BME280;11728;50.624;6.014;2023-04-29T22:49:32;98860.66;;;9.38;93.81
23118;BME280;11728;50.624;6.014;2023-04-29T22:54:53;98865.06;;;9.34;94.02
23118;BME280;11728;50.624;6.014;2023-04-29T23:00:14;98863.38;;;9.30;93.80
23118;BME280;11728;50.624;6.014;2023-04-29T23:05:35;98863.31;;;9.36;93.52
23118;BME280;11728;50.624;6.014;2023-04-29T23:10:56;98865.97;;;9.33;93.22
23118;BME280;11728;50.624;6.014;2023-04-29T23:16:16;98864.28;;;9.25;94.05
23118;BME280;11728;50.624;6.014;2023-04-29T23:21:37;98868.63;;;9.30;94.02
23118;BME280;11728;50.624;6.014;2023-04-29T23:26:58;98866.94;;;9.25;94.32
23118;BME280;11728;50.624;6.014;2023-04-29T23:32:19;98866.91;;;9.26;94.41
23118;BME280;11728;50.624;6.014;2023-04-29T23:37:40;98868.63;;;9.32;94.13
23118;BME280;11728;50.624;6.014;2023-04-29T23:43:01;98875.63;;;9.36;93.99
23118;BME280;11728;50.624;6.014;2023-04-29T23:48:21;98872.06;;;9.37;94.33
23118;BME280;11728;50.624;6.014;2023-04-29T23:53:42;98875.53;;;9.46;93.79
23118;BME280;11728;50.624;6.014;2023-04-29T23:59:03;98880.69;;;9.55;93.74
